CMB817 Details

Departure: RAF Mildenhall (EGUN)
Arrival: Ramstein Air Force Base (ETAR)
Notes: USTRANSCOM CONTRACT FLIGHT


Current Weather Information
EGUN 200856Z 23007KT 9999 SCT160 10/10 A3045 RMK AO2A SLPNO WND DATA ESTMD T00950095 52013 $
ETAR 200856Z AUTO 00000KT 9999 CLR 05/M01 A3055 RMK AO2 SLPNO T00541013 52011 $